Time;durP1;ratioP1;P1;durP2;ratioP2;P2;SDS_P1;SDS_P2;PMS_P1;PMS_P2;Temp;Humidity;BMP_temperature;BMP_pressure;BME280_temperature;BME280_humidity;BME280_pressure;Samples;Min_cycle;Max_cycle;Signal;HPM_P1;HPM_P2
2023/04/24 00:01:12;;;;;;;18.65;13.18;;;;;;;9.30;70.94;99303.66;5094127;28;20019;-72
2023/04/24 00:03:39;;;;;;;15.50;12.25;;;;;;;9.06;72.26;99300.25;5095634;28;20024;-72
2023/04/24 00:06:07;;;;;;;23.63;13.20;;;;;;;9.02;72.55;99290.09;5092448;28;20032;-72
2023/04/24 00:08:33;;;;;;;16.92;11.98;;;;;;;8.82;73.80;99296.00;5108664;28;20042;-71
2023/04/24 00:10:59;;;;;;;17.13;12.07;;;;;;;8.90;74.59;99285.97;5105560;28;20522;-71
2023/04/24 00:13:24;;;;;;;16.00;12.65;;;;;;;9.14;73.20;99279.06;5093016;28;20047;-72
2023/04/24 00:15:50;;;;;;;16.63;11.55;;;;;;;9.49;73.46;99292.97;5085521;28;20147;-72
2023/04/24 00:18:17;;;;;;;16.40;12.20;;;;;;;9.72;72.50;99298.34;5093709;28;20421;-72
2023/04/24 00:20:43;;;;;;;17.58;12.32;;;;;;;9.81;71.11;99296.31;5111895;28;20036;-72
2023/04/24 00:23:09;;;;;;;16.10;12.18;;;;;;;9.68;71.61;99289.78;5079948;28;20030;-72
2023/04/24 00:25:35;;;;;;;16.52;11.85;;;;;;;9.47;71.86;99303.66;5093766;28;20110;-72
2023/04/24 00:28:00;;;;;;;19.67;12.45;;;;;;;8.99;73.74;99299.91;5111041;28;20429;-72
2023/04/24 00:30:26;;;;;;;19.55;13.10;;;;;;;8.92;74.72;99299.56;5074724;28;20013;-72
2023/04/24 00:32:51;;;;;;;19.17;13.65;;;;;;;8.76;75.49;99290.91;5106631;28;20423;-72
2023/04/24 00:35:19;;;;;;;20.90;16.80;;;;;;;8.64;76.60;99291.53;5096363;28;20024;-72
2023/04/24 00:37:45;;;;;;;29.05;17.80;;;;;;;8.58;77.44;99293.66;5082051;28;20089;-72
2023/04/24 00:40:11;;;;;;;26.70;17.73;;;;;;;8.49;77.23;99292.78;5091259;28;20019;-72
2023/04/24 00:42:36;;;;;;;22.95;17.75;;;;;;;7.93;80.48;99299.69;5092697;28;20027;-72
2023/04/24 00:45:03;;;;;;;28.42;17.08;;;;;;;8.06;80.18;99297.09;5079135;28;20110;-72
2023/04/24 00:47:28;;;;;;;26.38;17.50;;;;;;;7.76;81.87;99305.19;5091545;28;20024;-72
2023/04/24 00:49:54;;;;;;;35.10;17.77;;;;;;;7.65;82.42;99299.91;5076627;28;20101;-72
2023/04/24 00:52:20;;;;;;;27.27;16.23;;;;;;;7.52;83.44;99298.03;5074286;28;20038;-72
2023/04/24 00:54:46;;;;;;;18.33;14.55;;;;;;;7.42;82.74;99291.56;5092381;28;20492;-72
2023/04/24 00:57:14;;;;;;;19.15;13.77;;;;;;;7.41;83.53;99289.94;5082425;28;20092;-71
2023/04/24 00:59:41;;;;;;;19.42;14.25;;;;;;;6.99;84.45;99284.59;5094015;28;20030;-71
2023/04/24 01:02:08;;;;;;;18.23;14.43;;;;;;;6.99;85.13;99294.88;5074165;28;20027;-72
2023/04/24 01:04:34;;;;;;;21.00;14.00;;;;;;;6.93;85.21;99296.16;5082272;28;20572;-71
2023/04/24 01:07:00;;;;;;;16.58;13.85;;;;;;;6.89;85.51;99287.59;5110379;28;20028;-71
2023/04/24 01:09:26;;;;;;;18.88;13.32;;;;;;;6.97;84.92;99286.88;5080906;28;20024;-72
2023/04/24 01:11:52;;;;;;;18.48;12.63;;;;;;;7.11;84.24;99286.78;5094192;28;20580;-72
2023/04/24 01:14:18;;;;;;;23.42;14.18;;;;;;;7.27;84.18;99286.41;5073807;28;20031;-72
2023/04/24 01:16:43;;;;;;;18.10;13.85;;;;;;;7.27;83.59;99289.19;5100413;28;20094;-72
2023/04/24 01:19:11;;;;;;;21.02;13.73;;;;;;;7.31;84.17;99287.41;5085732;28;20105;-72
2023/04/24 01:21:38;;;;;;;21.30;14.10;;;;;;;7.26;83.52;99290.34;5100251;28;20076;-71
2023/04/24 01:24:05;;;;;;;25.92;15.60;;;;;;;7.01;84.78;99292.63;5075961;28;20398;-71
2023/04/24 01:26:30;;;;;;;23.30;15.07;;;;;;;7.16;84.12;99294.19;5073854;28;20115;-72
2023/04/24 01:28:56;;;;;;;22.98;15.95;;;;;;;7.37;83.50;99288.94;5073501;28;20161;-71
2023/04/24 01:31:22;;;;;;;20.42;14.93;;;;;;;7.52;83.10;99281.31;5091668;28;20410;-72
2023/04/24 01:33:47;;;;;;;21.10;14.93;;;;;;;7.48;82.65;99280.31;5091668;28;20054;-72
2023/04/24 01:36:14;;;;;;;21.98;15.55;;;;;;;7.53;83.14;99280.97;5091269;28;20020;-72
2023/04/24 01:38:39;;;;;;;30.13;15.95;;;;;;;7.53;83.66;99274.63;5091469;28;20024;-72
2023/04/24 01:41:05;;;;;;;22.63;15.73;;;;;;;7.61;83.09;99279.41;5074134;28;20031;-72
2023/04/24 01:43:31;;;;;;;20.85;14.75;;;;;;;7.45;83.45;99274.25;5073417;28;20067;-72
2023/04/24 01:45:57;;;;;;;22.15;15.18;;;;;;;6.95;86.47;99268.84;5092649;28;20027;-71
2023/04/24 01:48:22;;;;;;;19.60;13.65;;;;;;;7.20;86.65;99272.97;5091458;28;20024;-72
2023/04/24 01:50:48;;;;;;;23.85;17.10;;;;;;;7.64;85.02;99267.63;5091728;28;20082;-72
2023/04/24 01:53:13;;;;;;;29.27;16.55;;;;;;;7.91;82.82;99262.97;5080836;28;20030;-71
2023/04/24 01:55:40;;;;;;;25.00;16.63;;;;;;;8.09;82.39;99254.69;5102417;28;20022;-72
2023/04/24 01:58:05;;;;;;;25.70;17.45;;;;;;;8.19;81.03;99262.72;5091435;28;20490;-71
2023/04/24 02:00:31;;;;;;;20.02;15.38;;;;;;;8.40;80.74;99257.38;5094982;28;20084;-72
2023/04/24 02:02:56;;;;;;;25.08;15.77;;;;;;;8.17;80.09;99259.44;5110879;28;20029;-72
2023/04/24 02:05:22;;;;;;;25.23;16.38;;;;;;;8.46;80.09;99249.69;5111012;28;20016;-72
2023/04/24 02:07:47;;;;;;;26.92;16.55;;;;;;;8.57;79.01;99245.47;5106450;28;20097;-71
2023/04/24 02:10:13;;;;;;;19.52;14.82;;;;;;;8.70;78.00;99242.84;5089526;28;20019;-72
2023/04/24 02:12:38;;;;;;;19.95;15.23;;;;;;;8.56;78.83;99243.78;5111465;28;20058;-71
2023/04/24 02:15:05;;;;;;;25.05;15.90;;;;;;;8.66;79.25;99237.09;5107212;28;20099;-71
2023/04/24 02:17:30;;;;;;;19.15;15.18;;;;;;;8.50;79.94;99231.19;5073500;28;20039;-71
2023/04/24 02:19:56;;;;;;;26.77;17.60;;;;;;;8.49;78.81;99231.47;5090835;28;20024;-72
2023/04/24 02:22:21;;;;;;;26.88;17.08;;;;;;;8.56;77.86;99232.66;5089618;28;20540;-71
2023/04/24 02:24:47;;;;;;;31.23;17.75;;;;;;;8.33;78.64;99243.09;5091479;28;20165;-71
2023/04/24 02:27:12;;;;;;;33.35;17.88;;;;;;;8.49;79.93;99228.69;5102874;28;20031;-71
2023/04/24 02:29:38;;;;;;;24.42;16.40;;;;;;;8.60;77.90;99243.97;5110765;28;20104;-71
2023/04/24 02:32:04;;;;;;;24.45;17.17;;;;;;;8.26;79.48;99248.31;5089373;28;20024;-72
2023/04/24 02:34:29;;;;;;;45.45;23.98;;;;;;;7.99;81.01;99231.56;5081196;28;20484;-72
2023/04/24 02:36:55;;;;;;;38.80;23.60;;;;;;;7.72;82.25;99233.44;5072846;28;20039;-72
2023/04/24 02:39:20;;;;;;;48.85;27.13;;;;;;;7.44;84.57;99235.63;5090818;28;20020;-72
2023/04/24 02:41:46;;;;;;;49.13;25.70;;;;;;;7.55;85.17;99227.78;5090981;28;20032;-72
2023/04/24 02:44:11;;;;;;;28.55;18.77;;;;;;;7.93;84.48;99227.28;5090838;28;20486;-72
2023/04/24 02:46:37;;;;;;;29.20;16.35;;;;;;;7.92;82.58;99228.41;5078653;28;20099;-72
2023/04/24 02:49:02;;;;;;;21.73;16.45;;;;;;;7.90;83.05;99227.09;5089281;28;20016;-72
2023/04/24 02:51:28;;;;;;;23.88;15.30;;;;;;;8.28;82.31;99238.50;5108416;28;20028;-72
2023/04/24 02:53:53;;;;;;;25.70;18.00;;;;;;;8.38;82.45;99239.34;5108811;28;20027;-72
2023/04/24 02:56:19;;;;;;;22.38;15.48;;;;;;;8.61;81.14;99230.88;5109932;28;20103;-72
2023/04/24 02:58:45;;;;;;;21.92;16.02;;;;;;;8.65;81.05;99232.66;5087740;28;20109;-72
2023/04/24 03:01:10;;;;;;;21.98;16.13;;;;;;;8.70;80.03;99238.06;5091980;28;20109;-71
2023/04/24 03:03:37;;;;;;;29.63;15.38;;;;;;;8.86;79.43;99237.56;5094575;28;20036;-72
2023/04/24 03:06:03;;;;;;;21.52;14.57;;;;;;;8.96;79.42;99245.59;5086096;28;20024;-71
2023/04/24 03:08:28;;;;;;;19.52;15.02;;;;;;;8.88;78.32;99240.03;5109930;28;20069;-72
2023/04/24 03:10:53;;;;;;;17.45;13.80;;;;;;;8.77;79.45;99256.28;5104026;28;20020;-71
2023/04/24 03:13:19;;;;;;;20.98;15.10;;;;;;;8.68;78.17;99261.84;5079630;28;20048;-72
2023/04/24 03:15:46;;;;;;;26.10;14.68;;;;;;;8.96;77.39;99258.75;5080174;28;20120;-72
2023/04/24 03:18:11;;;;;;;26.85;13.77;;;;;;;8.93;76.88;99264.97;5096358;28;20030;-72
2023/04/24 03:20:37;;;;;;;19.52;13.50;;;;;;;8.56;78.45;99266.09;5096395;28;20027;-72
2023/04/24 03:23:03;;;;;;;18.75;14.05;;;;;;;8.65;77.70;99248.56;5095981;28;20054;-72
2023/04/24 03:25:28;;;;;;;19.92;14.13;;;;;;;8.29;79.34;99264.41;5096513;28;20510;-72
2023/04/24 03:27:54;;;;;;;29.00;14.90;;;;;;;8.55;79.39;99261.66;5094299;28;20028;-71
2023/04/24 03:30:20;;;;;;;20.25;14.60;;;;;;;8.71;79.01;99255.63;5095484;28;20502;-71
2023/04/24 03:32:45;;;;;;;24.77;14.45;;;;;;;8.63;80.15;99262.84;5099420;28;20036;-72
2023/04/24 03:35:11;;;;;;;26.27;14.98;;;;;;;8.66;79.66;99264.13;5092758;28;20581;-72
2023/04/24 03:37:36;;;;;;;21.83;13.00;;;;;;;8.65;79.54;99254.13;5093860;28;20032;-72
2023/04/24 03:40:02;;;;;;;21.35;13.18;;;;;;;8.63;79.53;99259.22;5094096;28;20047;-72
2023/04/24 03:42:28;;;;;;;19.48;13.82;;;;;;;8.79;78.95;99256.78;5101470;28;20114;-72
2023/04/24 03:44:53;;;;;;;21.20;13.98;;;;;;;8.63;79.97;99259.22;5114389;28;20410;-71
2023/04/24 03:47:19;;;;;;;19.95;14.73;;;;;;;8.62;79.84;99261.19;5095906;28;20024;-72
2023/04/24 03:49:44;;;;;;;27.52;14.63;;;;;;;8.84;78.78;99265.81;5090387;28;20067;-72
2023/04/24 03:52:10;;;;;;;32.47;18.40;;;;;;;8.96;78.03;99276.28;5095835;28;20024;-72
2023/04/24 03:54:35;;;;;;;28.27;18.27;;;;;;;8.74;79.21;99268.91;5096987;28;20035;-72
2023/04/24 03:57:01;;;;;;;34.50;19.98;;;;;;;8.46;80.85;99266.41;5091602;28;20027;-72
2023/04/24 03:59:27;;;;;;;36.60;18.95;;;;;;;8.23;82.68;99274.88;5094607;28;20473;-72
2023/04/24 04:01:52;;;;;;;30.58;18.38;;;;;;;8.24;83.51;99258.97;5095091;28;20038;-72
2023/04/24 04:04:18;;;;;;;24.60;16.80;;;;;;;8.58;83.26;99268.56;5095329;28;20470;-72
2023/04/24 04:06:44;;;;;;;38.10;18.33;;;;;;;8.88;81.11;99270.72;5113420;28;20027;-72
2023/04/24 04:09:10;;;;;;;23.05;15.45;;;;;;;9.06;79.91;99269.56;5113792;28;20099;-72
2023/04/24 04:11:36;;;;;;;25.52;16.20;;;;;;;9.23;78.55;99276.25;5099900;28;20472;-72
2023/04/24 04:14:01;;;;;;;20.02;14.88;;;;;;;9.41;77.81;99288.22;5074681;28;20031;-72
2023/04/24 04:16:26;;;;;;;25.38;15.60;;;;;;;9.38;78.73;99278.53;5085415;28;20085;-72
2023/04/24 04:18:52;;;;;;;17.52;13.95;;;;;;;9.52;78.65;99277.50;5093047;28;20028;-72
2023/04/24 04:21:17;;;;;;;21.55;13.25;;;;;;;9.71;77.68;99265.94;5095654;28;20032;-73
2023/04/24 04:23:43;;;;;;;23.70;15.02;;;;;;;9.83;76.72;99276.44;5107949;28;20036;-72
2023/04/24 04:26:08;;;;;;;22.63;14.75;;;;;;;9.75;77.22;99278.09;5112483;28;20034;-72
2023/04/24 04:28:34;;;;;;;21.23;14.30;;;;;;;9.79;77.40;99276.28;5093331;28;20031;-73
2023/04/24 04:31:00;;;;;;;17.70;14.48;;;;;;;9.95;76.64;99281.28;5082257;28;20039;-72
2023/04/24 04:33:26;;;;;;;23.02;14.38;;;;;;;10.11;76.92;99290.78;5080578;28;20046;-72
2023/04/24 04:35:52;;;;;;;23.33;14.27;;;;;;;10.26;76.29;99285.75;5092794;28;20039;-72
2023/04/24 04:38:18;;;;;;;19.45;14.73;;;;;;;10.55;73.97;99284.13;5092650;28;20071;-72
2023/04/24 04:40:45;;;;;;;19.58;14.98;;;;;;;10.69;73.53;99278.28;5094330;28;20028;-73
2023/04/24 04:43:10;;;;;;;38.30;20.38;;;;;;;10.82;73.65;99279.97;5081432;28;20052;-72
2023/04/24 04:45:38;;;;;;;34.72;22.02;;;;;;;10.73;73.35;99276.41;5092018;28;20039;-71
2023/04/24 04:48:04;;;;;;;22.92;16.42;;;;;;;10.89;72.53;99287.81;5101980;28;20070;-70
2023/04/24 04:50:30;;;;;;;23.85;15.68;;;;;;;10.89;73.89;99281.41;5108027;27;20577;-71
2023/04/24 04:52:55;;;;;;;24.17;15.68;;;;;;;11.11;73.35;99282.22;5100670;28;20039;-73
2023/04/24 04:55:21;;;;;;;20.70;13.38;;;;;;;11.25;73.39;99268.75;5092611;28;20476;-74
2023/04/24 04:57:46;;;;;;;20.70;15.40;;;;;;;11.24;73.62;99264.31;5092291;28;20028;-74
2023/04/24 05:00:12;;;;;;;20.65;13.18;;;;;;;11.33;73.39;99267.81;5101481;28;20047;-71
2023/04/24 05:02:41;;;;;;;21.83;14.15;;;;;;;11.54;73.04;99261.34;5098927;28;20038;-70
2023/04/24 05:05:07;;;;;;;22.05;13.77;;;;;;;11.51;74.45;99262.06;5083052;28;20718;-72
2023/04/24 05:07:33;;;;;;;22.35;12.93;;;;;;;11.69;73.66;99259.88;5093232;28;20019;-68
2023/04/24 05:09:58;;;;;;;16.60;13.18;;;;;;;11.46;74.03;99256.66;5112577;28;20027;-72
2023/04/24 05:12:23;;;;;;;20.73;11.77;;;;;;;11.57;73.06;99255.03;5105589;27;20412;-73
2023/04/24 05:14:49;;;;;;;20.50;12.57;;;;;;;11.41;72.20;99242.88;5094215;28;20027;-72
2023/04/24 05:17:15;;;;;;;24.75;12.18;;;;;;;10.96;74.66;99239.69;5097080;28;20035;-72
2023/04/24 05:19:40;;;;;;;13.13;11.55;;;;;;;10.99;75.51;99247.44;5111622;28;20519;-73
2023/04/24 05:22:06;;;;;;;23.17;13.25;;;;;;;11.01;74.89;99245.09;5104535;28;20031;-72
2023/04/24 05:24:36;;;;;;;14.15;11.20;;;;;;;10.90;75.19;99241.09;5088581;28;20035;-72
2023/04/24 05:27:05;;;;;;;23.20;11.57;;;;;;;11.22;75.16;99241.41;5076153;28;20058;-72
2023/04/24 05:29:31;;;;;;;13.82;10.35;;;;;;;11.49;73.63;99239.19;5099554;28;20060;-72
2023/04/24 05:31:57;;;;;;;15.50;10.70;;;;;;;11.10;74.95;99247.81;5094453;28;20035;-72
2023/04/24 05:34:23;;;;;;;13.95;10.77;;;;;;;11.14;74.09;99245.94;5099598;28;20028;-73
2023/04/24 05:36:50;;;;;;;13.98;9.98;;;;;;;11.26;74.00;99245.19;5091616;28;20037;-74
2023/04/24 05:39:16;;;;;;;15.35;9.98;;;;;;;11.28;73.28;99240.06;5091785;28;20083;-76
2023/04/24 05:41:41;;;;;;;19.95;9.70;;;;;;;11.22;74.30;99245.06;5109373;28;20454;-74
2023/04/24 05:44:06;;;;;;;14.18;9.90;;;;;;;11.38;73.32;99241.59;5089145;28;20096;-73
2023/04/24 05:46:32;;;;;;;35.10;9.63;;;;;;;11.51;72.10;99245.25;5075282;28;20035;-73
2023/04/24 05:48:57;;;;;;;15.00;9.50;;;;;;;11.56;71.49;99255.41;5095072;28;20027;-71
2023/04/24 05:51:23;;;;;;;15.98;9.65;;;;;;;11.68;70.33;99260.22;5109111;28;20035;-74
2023/04/24 05:53:49;;;;;;;17.75;8.25;;;;;;;12.04;70.01;99256.66;5103662;28;20028;-76
2023/04/24 05:56:15;;;;;;;13.85;8.57;;;;;;;12.57;68.50;99261.50;5104601;28;20027;-76
2023/04/24 05:58:40;;;;;;;14.30;9.35;;;;;;;12.31;66.08;99268.34;5093415;28;20022;-73
2023/04/24 06:01:06;;;;;;;11.13;7.85;;;;;;;12.86;65.85;99256.78;5104424;28;20027;-71
2023/04/24 06:03:31;;;;;;;12.90;9.38;;;;;;;13.15;64.77;99266.00;5111714;28;20039;-75
2023/04/24 06:05:57;;;;;;;13.68;8.45;;;;;;;12.87;66.05;99254.78;5104805;28;20370;-74
2023/04/24 06:08:22;;;;;;;14.50;9.88;;;;;;;12.56;65.25;99251.47;5099038;28;20028;-74
2023/04/24 06:10:48;;;;;;;11.95;9.07;;;;;;;12.79;66.85;99253.75;5107597;28;20061;-73
2023/04/24 06:13:13;;;;;;;12.02;7.95;;;;;;;13.08;63.77;99246.16;5107287;28;20078;-72
2023/04/24 06:15:39;;;;;;;16.70;10.50;;;;;;;13.11;64.64;99250.25;5110364;28;20027;-73
2023/04/24 06:18:04;;;;;;;14.18;9.00;;;;;;;13.26;65.16;99252.25;5111315;28;20035;-74
2023/04/24 06:20:30;;;;;;;11.50;9.00;;;;;;;13.55;63.82;99264.34;5109971;28;20035;-74
2023/04/24 06:22:55;;;;;;;11.82;8.98;;;;;;;13.82;62.58;99244.94;5092686;28;20032;-76
2023/04/24 06:25:21;;;;;;;11.52;8.50;;;;;;;13.93;61.96;99255.66;5106743;28;20031;-73
2023/04/24 06:27:46;;;;;;;15.93;8.98;;;;;;;13.80;62.56;99258.56;5094680;28;20028;-73
2023/04/24 06:30:12;;;;;;;17.55;9.93;;;;;;;13.85;62.17;99252.66;5096681;28;20028;-74
2023/04/24 06:32:37;;;;;;;17.45;11.10;;;;;;;13.87;61.40;99258.72;5080925;28;20135;-74
2023/04/24 06:35:04;;;;;;;15.40;10.70;;;;;;;13.59;61.08;99250.38;5074526;28;20493;-74
2023/04/24 06:37:29;;;;;;;20.70;9.30;;;;;;;13.76;61.84;99263.28;5084014;27;20049;-74
2023/04/24 06:39:55;;;;;;;17.25;9.45;;;;;;;13.90;61.91;99255.19;5099726;28;20031;-74
2023/04/24 06:42:24;;;;;;;13.90;9.43;;;;;;;14.07;61.32;99264.44;5075575;28;20032;-73
2023/04/24 06:44:50;;;;;;;13.87;9.30;;;;;;;13.93;60.90;99259.25;5102661;28;20040;-73
2023/04/24 06:47:15;;;;;;;13.65;8.68;;;;;;;14.09;60.68;99259.25;5086729;28;20089;-74
2023/04/24 06:49:41;;;;;;;14.85;9.75;;;;;;;14.26;60.29;99263.69;5083818;28;20032;-72
2023/04/24 06:52:07;;;;;;;10.95;8.52;;;;;;;14.76;60.33;99262.44;5086543;28;20040;-73
2023/04/24 06:54:33;;;;;;;14.40;9.85;;;;;;;14.43;59.46;99268.09;5098388;27;20145;-75
2023/04/24 06:57:00;;;;;;;12.63;8.50;;;;;;;13.37;62.74;99257.38;5100269;28;20020;-75
2023/04/24 06:59:27;;;;;;;22.13;9.13;;;;;;;13.22;64.43;99259.78;5096934;28;20553;-75
2023/04/24 07:01:52;;;;;;;18.08;9.50;;;;;;;13.40;64.62;99263.09;5095453;28;20081;-75
2023/04/24 07:04:18;;;;;;;14.55;9.32;;;;;;;13.47;63.03;99259.69;5100568;28;20027;-76
2023/04/24 07:06:47;;;;;;;22.08;9.90;;;;;;;13.93;62.45;99252.84;5097845;28;20023;-77
2023/04/24 07:09:18;;;;;;;18.50;10.98;;;;;;;14.13;61.36;99250.91;5102214;28;20016;-77
2023/04/24 07:11:45;;;;;;;21.20;9.98;;;;;;;14.33;60.58;99260.22;5087498;28;20059;-78
2023/04/24 07:14:10;;;;;;;13.75;9.95;;;;;;;13.95;61.13;99258.91;5115148;28;20031;-75
2023/04/24 07:16:36;;;;;;;16.20;9.50;;;;;;;14.01;61.84;99269.50;5114118;28;20027;-73
2023/04/24 07:19:01;;;;;;;17.70;10.35;;;;;;;13.93;61.77;99264.09;5094096;28;20034;-74
2023/04/24 07:21:27;;;;;;;17.35;11.05;;;;;;;13.91;63.66;99258.81;5114555;28;20080;-74
2023/04/24 07:23:53;;;;;;;15.68;10.25;;;;;;;13.64;63.43;99266.97;5080904;28;20053;-74
2023/04/24 07:26:20;;;;;;;22.05;11.82;;;;;;;13.83;62.20;99249.38;5114763;28;20031;-71
2023/04/24 07:28:46;;;;;;;12.98;9.55;;;;;;;14.21;60.51;99257.53;5094872;28;20039;-74
2023/04/24 07:31:11;;;;;;;17.77;10.00;;;;;;;14.44;60.24;99252.06;5096238;28;20474;-74
2023/04/24 07:33:37;;;;;;;15.98;10.32;;;;;;;14.60;59.57;99263.28;5114482;28;20039;-74
2023/04/24 07:36:03;;;;;;;11.95;9.35;;;;;;;13.67;61.41;99259.81;5095700;28;20042;-72
2023/04/24 07:38:31;;;;;;;14.07;9.32;;;;;;;14.39;60.83;99253.16;5084626;28;20457;-73
2023/04/24 07:40:57;;;;;;;12.60;9.45;;;;;;;14.84;61.14;99244.50;5109650;28;20076;-70
2023/04/24 07:43:23;;;;;;;22.50;9.75;;;;;;;14.86;57.26;99242.16;5111584;28;20470;-73
2023/04/24 07:45:50;;;;;;;19.83;9.85;;;;;;;15.11;57.47;99253.13;5105689;28;20028;-72
2023/04/24 07:48:17;;;;;;;15.93;10.10;;;;;;;15.43;56.64;99233.19;5095628;28;20047;-75
2023/04/24 07:50:43;;;;;;;15.77;9.65;;;;;;;15.67;55.47;99229.22;5111592;28;20482;-72
2023/04/24 07:53:09;;;;;;;15.75;9.15;;;;;;;15.94;56.72;99228.47;5095625;28;20024;-73
2023/04/24 07:55:34;;;;;;;29.60;10.50;;;;;;;16.27;54.58;99226.97;5110298;28;20040;-70
2023/04/24 07:57:59;;;;;;;14.02;8.45;;;;;;;16.14;54.00;99227.19;5095907;28;20027;-73
2023/04/24 08:00:25;;;;;;;14.82;8.77;;;;;;;15.80;54.85;99224.16;5095757;28;20027;-69
2023/04/24 08:02:50;;;;;;;15.80;9.07;;;;;;;16.34;55.70;99229.91;5113226;28;20027;-72
2023/04/24 08:05:16;;;;;;;15.02;10.35;;;;;;;16.61;54.54;99224.22;5109887;28;20120;-77
2023/04/24 08:07:46;;;;;;;11.82;9.00;;;;;;;16.78;54.17;99230.53;5082872;28;20027;-71
2023/04/24 08:10:11;;;;;;;17.95;10.13;;;;;;;16.15;53.81;99233.66;5095027;28;20038;-71
2023/04/24 08:12:37;;;;;;;12.80;9.00;;;;;;;16.92;53.87;99232.69;5093732;28;20055;-73
2023/04/24 08:15:04;;;;;;;14.15;9.68;;;;;;;17.07;54.05;99225.25;5106956;28;20024;-71
2023/04/24 08:17:29;;;;;;;13.82;9.07;;;;;;;17.15;52.99;99220.50;5084079;28;20088;-73
2023/04/24 08:20:01;;;;;;;15.93;9.20;;;;;;;17.51;50.88;99232.19;5109200;28;20031;-71
2023/04/24 08:22:27;;;;;;;20.60;9.85;;;;;;;17.52;50.17;99223.34;5092951;28;20030;-71
2023/04/24 08:24:53;;;;;;;17.35;9.45;;;;;;;17.84;50.31;99222.00;5112131;28;20046;-71
2023/04/24 08:27:18;;;;;;;10.80;8.65;;;;;;;18.16;48.81;99215.00;5113465;28;20490;-71
2023/04/24 08:29:44;;;;;;;13.32;9.30;;;;;;;17.99;49.05;99205.97;5106039;27;20068;-70
2023/04/24 08:32:10;;;;;;;15.63;9.77;;;;;;;18.13;48.57;99210.94;5089586;28;20030;-71
2023/04/24 08:34:35;;;;;;;10.80;8.70;;;;;;;17.91;47.11;99215.59;5113022;28;20071;-72
2023/04/24 08:37:02;;;;;;;16.40;10.50;;;;;;;17.99;48.86;99211.63;5090985;28;20083;-71
2023/04/24 08:39:27;;;;;;;15.02;8.73;;;;;;;17.73;48.11;99202.09;5112962;28;20023;-74
2023/04/24 08:41:53;;;;;;;18.67;8.55;;;;;;;17.82;49.13;99202.59;5105840;28;20375;-73
2023/04/24 08:44:19;;;;;;;10.75;9.10;;;;;;;18.27;50.21;99206.56;5111744;28;20084;-73
2023/04/24 08:46:47;;;;;;;16.50;9.20;;;;;;;18.22;49.50;99196.44;5089093;28;20134;-73
2023/04/24 08:49:16;;;;;;;11.65;8.15;;;;;;;18.14;50.74;99195.56;5103792;28;20092;-70
2023/04/24 08:51:42;;;;;;;10.82;9.05;;;;;;;18.14;48.09;99189.13;5087655;28;20027;-73
2023/04/24 08:54:08;;;;;;;18.27;9.90;;;;;;;17.89;49.87;99184.84;5104890;27;20043;-71
2023/04/24 08:56:37;;;;;;;17.13;10.20;;;;;;;18.52;49.66;99186.94;5090208;28;20039;-73
2023/04/24 08:59:04;;;;;;;13.32;8.38;;;;;;;18.85;49.10;99178.56;5100031;28;20024;-73
2023/04/24 09:01:32;;;;;;;16.77;9.63;;;;;;;19.28;49.37;99178.75;5095115;28;20101;-73
2023/04/24 09:04:02;;;;;;;12.43;8.68;;;;;;;19.04;46.25;99168.94;5112855;28;20027;-73
2023/04/24 09:06:28;;;;;;;12.63;8.87;;;;;;;19.01;46.20;99167.75;5097744;28;20043;-73
2023/04/24 09:08:55;;;;;;;14.95;9.68;;;;;;;19.14;46.52;99170.22;5095082;28;20024;-75
2023/04/24 09:11:23;;;;;;;13.75;8.52;;;;;;;19.47;44.75;99163.38;5106705;28;20032;-75
2023/04/24 09:13:49;;;;;;;12.93;9.85;;;;;;;19.81;46.20;99162.16;5111439;28;20110;-75
2023/04/24 09:16:15;;;;;;;13.88;9.40;;;;;;;19.45;46.85;99154.47;5110770;28;20023;-73
2023/04/24 09:18:40;;;;;;;14.70;9.20;;;;;;;19.30;45.51;99156.47;5102752;28;20030;-76
2023/04/24 09:21:09;;;;;;;14.77;9.85;;;;;;;19.58;45.37;99159.75;5107212;28;20042;-71
2023/04/24 09:23:35;;;;;;;11.88;8.82;;;;;;;19.60;44.69;99155.25;5106353;28;20027;-74
2023/04/24 09:26:04;;;;;;;11.48;8.50;;;;;;;19.80;44.37;99159.75;5111789;28;20050;-74
2023/04/24 09:28:34;;;;;;;12.95;8.57;;;;;;;19.83;43.13;99153.25;5093898;28;20027;-74
2023/04/24 09:31:06;;;;;;;15.80;9.60;;;;;;;19.09;44.22;99157.25;5112015;28;20065;-72
2023/04/24 09:33:31;;;;;;;12.32;9.13;;;;;;;19.69;45.53;99149.22;5079732;28;20038;-73
2023/04/24 09:35:58;;;;;;;15.32;8.95;;;;;;;19.83;43.57;99148.38;5105938;28;20398;-73
2023/04/24 09:38:37;;;;;;;14.82;8.98;;;;;;;19.63;44.24;99145.16;5091574;28;20042;-73
2023/04/24 09:41:08;;;;;;;14.18;10.30;;;;;;;19.61;46.34;99141.91;5102993;27;20027;-73
2023/04/24 09:43:35;;;;;;;13.15;9.57;;;;;;;19.52;44.32;99138.66;5093655;28;20027;-74
2023/04/24 09:46:06;;;;;;;15.25;8.75;;;;;;;19.61;43.89;99139.06;5093179;28;20019;-71
2023/04/24 09:48:33;;;;;;;18.20;9.80;;;;;;;19.54;42.99;99131.38;5111676;28;20015;-71
2023/04/24 09:51:01;;;;;;;14.30;8.50;;;;;;;19.78;43.54;99118.38;5111631;28;20096;-74
2023/04/24 09:53:27;;;;;;;17.15;9.23;;;;;;;19.77;42.83;99110.28;5096772;27;20058;-74
2023/04/24 09:55:53;;;;;;;12.80;8.65;;;;;;;20.37;41.71;99124.81;5103006;27;20474;-73
2023/04/24 09:58:26;;;;;;;21.52;9.68;;;;;;;20.72;44.13;99111.69;5091014;28;20097;-74
2023/04/24 10:00:54;;;;;;;16.98;8.85;;;;;;;20.53;41.79;99112.97;5110087;28;20107;-72
2023/04/24 10:03:20;;;;;;;16.15;10.75;;;;;;;20.57;42.98;99102.41;5108825;27;20038;-71
2023/04/24 10:05:46;;;;;;;15.35;9.95;;;;;;;20.40;43.49;99089.91;5114030;27;20035;-70
2023/04/24 10:08:13;;;;;;;15.48;10.38;;;;;;;20.49;43.10;99092.28;5100886;28;20028;-70
2023/04/24 10:10:41;;;;;;;16.30;11.27;;;;;;;20.34;42.52;99098.03;5089440;28;20031;-70
2023/04/24 10:13:09;;;;;;;19.42;11.65;;;;;;;20.47;43.69;99103.25;5098500;28;21706;-70
2023/04/24 10:15:35;;;;;;;15.43;12.15;;;;;;;20.32;44.25;99103.31;5106642;28;20032;-73
2023/04/24 10:18:01;;;;;;;15.65;11.38;;;;;;;20.33;43.33;99098.44;5093174;28;20122;-70
2023/04/24 10:20:30;;;;;;;16.17;11.90;;;;;;;20.50;43.47;99081.75;5110705;28;20036;-67
2023/04/24 10:22:57;;;;;;;23.80;12.27;;;;;;;20.69;43.34;99078.38;5101878;28;20139;-70
2023/04/24 10:25:25;;;;;;;16.38;10.15;;;;;;;20.70;43.20;99082.06;5099039;28;20346;-71
2023/04/24 10:27:52;;;;;;;13.77;11.05;;;;;;;20.48;43.63;99071.59;5091598;28;20038;-69
2023/04/24 10:30:21;;;;;;;18.83;10.15;;;;;;;20.48;44.02;99079.31;5088804;28;20126;-74
2023/04/24 10:32:46;;;;;;;17.83;11.25;;;;;;;20.48;43.34;99085.81;5076663;28;20027;-70
2023/04/24 10:35:14;;;;;;;12.43;10.18;;;;;;;20.67;43.01;99077.22;5096934;28;20023;-70
2023/04/24 10:37:45;;;;;;;17.40;10.93;;;;;;;21.07;42.02;99074.16;5092735;28;20084;-72
2023/04/24 10:40:11;;;;;;;17.83;10.93;;;;;;;21.23;42.03;99062.25;5083708;28;20019;-71
2023/04/24 10:42:42;;;;;;;12.85;10.05;;;;;;;21.06;41.05;99061.97;5084924;28;20475;-71
2023/04/24 10:45:17;;;;;;;16.75;9.80;;;;;;;21.16;39.89;99060.25;5081806;28;20495;-72
2023/04/24 10:47:56;;;;;;;15.45;10.23;;;;;;;21.20;39.58;99055.38;5083665;28;20514;-73
2023/04/24 10:50:22;;;;;;;10.80;8.65;;;;;;;21.24;39.51;99061.03;5075526;28;20031;-72
2023/04/24 10:52:51;;;;;;;16.45;9.65;;;;;;;21.38;40.01;99063.78;5078824;28;20403;-69
2023/04/24 10:55:36;;;;;;;16.50;10.00;;;;;;;21.49;39.70;99057.19;5095160;28;20424;-69
2023/04/24 10:58:05;;;;;;;24.38;10.25;;;;;;;21.72;40.84;99048.03;5087001;28;20039;-72
2023/04/24 11:00:30;;;;;;;15.45;10.55;;;;;;;21.91;40.55;99051.53;5101932;28;20035;-72
2023/04/24 11:02:57;;;;;;;13.70;9.10;;;;;;;21.79;40.68;99047.16;5097870;28;20100;-75
2023/04/24 11:05:53;;;;;;;22.42;9.27;;;;;;;22.10;40.06;99047.25;5099951;28;20153;-75
2023/04/24 11:08:24;;;;;;;13.50;9.93;;;;;;;21.94;40.14;99045.78;5095436;28;20030;-75
2023/04/24 11:11:21;;;;;;;16.98;8.57;;;;;;;21.76;39.93;99048.81;5101165;28;20354;-74
2023/04/24 11:13:56;;;;;;;80.15;13.60;;;;;;;21.84;38.92;99041.00;5099823;28;20032;-74
2023/04/24 11:16:35;;;;;;;11.85;9.85;;;;;;;22.16;39.03;99039.84;5099366;28;20020;-74
2023/04/24 11:19:05;;;;;;;14.82;9.05;;;;;;;22.01;39.03;99042.03;5096408;28;20043;-74
2023/04/24 11:21:55;;;;;;;;;;;;;;;21.82;40.32;99037.78;5088946;28;20088;-74